createdAt,value
2019-03-01T00:00:33.744Z,79.43
2019-03-01T00:03:06.721Z,79.86
2019-03-01T00:05:53.433Z,80.05
2019-03-01T00:08:27.860Z,80.13
2019-03-01T00:11:08.442Z,79.88
2019-03-01T00:13:58.201Z,79.87
2019-03-01T00:16:51.364Z,79.93
2019-03-01T00:19:26.188Z,79.97
2019-03-01T00:22:17.513Z,79.80
2019-03-01T00:24:51.928Z,80.28
2019-03-01T00:27:44.477Z,80.40
2019-03-01T00:30:35.994Z,80.32
2019-03-01T00:33:20.870Z,80.23
2019-03-01T00:36:04.503Z,79.91
2019-03-01T00:38:51.322Z,79.61
2019-03-01T00:41:42.428Z,79.61
2019-03-01T00:44:20.128Z,79.84
2019-03-01T00:46:51.578Z,79.29
2019-03-01T00:49:23.426Z,79.24
2019-03-01T00:51:54.984Z,78.96
2019-03-01T00:54:26.645Z,79.16
2019-03-01T00:56:58.302Z,79.06
2019-03-01T00:59:29.846Z,79.11
2019-03-01T01:02:01.404Z,79.14
2019-03-01T01:04:33.165Z,78.75
2019-03-01T01:07:04.824Z,78.61
2019-03-01T01:09:36.678Z,78.61
2019-03-01T01:12:08.336Z,78.60
2019-03-01T01:14:39.998Z,78.13
2019-03-01T01:17:11.541Z,78.25
2019-03-01T01:19:43.197Z,78.39
2019-03-01T01:22:14.751Z,78.28
2019-03-01T01:24:46.509Z,77.94
2019-03-01T01:27:18.164Z,77.62
2019-03-01T01:29:49.825Z,77.80
2019-03-01T01:32:21.480Z,77.26
2019-03-01T01:34:54.053Z,76.52
2019-03-01T01:37:25.724Z,75.90
2019-03-01T01:39:57.376Z,75.41
2019-03-01T01:42:29.035Z,74.55
2019-03-01T01:45:00.697Z,74.36
2019-03-01T01:47:32.554Z,74.08
2019-03-01T01:50:06.148Z,73.87
2019-03-01T01:52:38.832Z,73.62
2019-03-01T01:55:10.376Z,73.50
2019-03-01T01:57:42.036Z,73.48
2019-03-01T02:00:14.209Z,73.18
2019-03-01T02:02:46.061Z,73.34
2019-03-01T02:05:18.333Z,73.48
2019-03-01T02:07:50.598Z,74.12
2019-03-01T02:10:22.562Z,74.44
2019-03-01T02:12:54.224Z,73.87
2019-03-01T02:15:25.474Z,73.67
2019-03-01T02:17:57.115Z,73.98
2019-03-01T02:20:28.776Z,74.19
2019-03-01T02:23:00.537Z,74.30
2019-03-01T02:25:32.837Z,73.73
2019-03-01T02:28:04.359Z,73.86
2019-03-01T02:30:42.067Z,73.78
2019-03-01T02:33:13.730Z,73.78
2019-03-01T02:35:45.276Z,73.72
2019-03-01T02:38:16.928Z,74.24
2019-03-01T02:40:48.482Z,74.58
2019-03-01T02:43:20.342Z,74.64
2019-03-01T02:45:51.599Z,74.93
2019-03-01T02:48:23.657Z,75.71
2019-03-01T02:50:55.099Z,75.55
2019-03-01T02:53:26.883Z,75.22
2019-03-01T02:55:58.411Z,75.41
2019-03-01T02:58:30.271Z,75.45
2019-03-01T03:01:01.889Z,76.01
2019-03-01T03:03:33.380Z,75.79
2019-03-01T03:06:09.542Z,75.49
2019-03-01T03:08:40.784Z,75.49
2019-03-01T03:11:12.437Z,75.17
2019-03-01T03:13:44.105Z,75.38
2019-03-01T03:16:15.866Z,75.21
2019-03-01T03:18:47.414Z,74.56
2019-03-01T03:21:19.070Z,74.66
2019-03-01T03:23:50.621Z,74.94
2019-03-01T03:26:22.286Z,74.41
2019-03-01T03:28:53.831Z,74.48
2019-03-01T03:31:25.494Z,74.32
2019-03-01T03:33:57.164Z,74.72
2019-03-01T03:36:28.905Z,74.37
2019-03-01T03:39:00.560Z,74.09
2019-03-01T03:41:33.238Z,73.58
2019-03-01T03:44:04.888Z,74.01
2019-03-01T03:46:36.548Z,74.54
2019-03-01T03:49:08.009Z,74.35
2019-03-01T03:51:39.658Z,75.44
2019-03-01T03:54:11.320Z,75.90
2019-03-01T03:56:42.964Z,76.70
2019-03-01T03:59:14.624Z,77.08
2019-03-01T04:01:46.311Z,77.89
2019-03-01T04:04:17.940Z,77.60
2019-03-01T04:06:50.021Z,78.53
2019-03-01T04:09:21.352Z,78.46
2019-03-01T04:11:53.006Z,80.19
2019-03-01T04:14:24.677Z,80.29
2019-03-01T04:16:56.325Z,80.63
2019-03-01T04:19:27.992Z,79.86
2019-03-01T04:21:59.424Z,80.18
2019-03-01T04:24:31.096Z,80.33
2019-03-01T04:27:02.740Z,81.14
2019-03-01T04:29:34.600Z,81.38
2019-03-01T04:32:06.561Z,80.93
2019-03-01T04:34:37.914Z,80.41
2019-03-01T04:37:09.771Z,80.42
2019-03-01T04:39:41.840Z,80.51
2019-03-01T04:42:13.729Z,80.42
2019-03-01T04:44:45.359Z,80.93
2019-03-01T04:47:17.005Z,80.34
2019-03-01T04:49:48.869Z,79.52
2019-03-01T04:52:34.100Z,79.46
2019-03-01T04:55:08.973Z,79.02
2019-03-01T04:57:40.632Z,78.79
2019-03-01T05:00:15.256Z,78.57
2019-03-01T05:02:47.012Z,78.83
2019-03-01T05:05:18.673Z,78.69
2019-03-01T05:07:50.427Z,77.84
2019-03-01T05:10:21.775Z,77.13
2019-03-01T05:12:53.326Z,77.77
2019-03-01T05:15:25.284Z,78.15
2019-03-01T05:17:56.845Z,77.32
2019-03-01T05:20:30.470Z,77.22
2019-03-01T05:23:01.487Z,77.07
2019-03-01T05:25:33.249Z,76.83
2019-03-01T05:28:04.910Z,76.27
2019-03-01T05:30:36.362Z,76.41
2019-03-01T05:33:07.908Z,75.20
2019-03-01T05:35:39.908Z,75.30
2019-03-01T05:38:11.523Z,75.39
2019-03-01T05:40:43.181Z,75.25
2019-03-01T05:43:15.040Z,75.11
2019-03-01T05:45:46.708Z,74.46
2019-03-01T05:48:18.463Z,73.95
2019-03-01T05:50:50.342Z,73.30
2019-03-01T05:53:21.979Z,73.79
2019-03-01T05:55:53.729Z,73.25
2019-03-01T05:58:36.728Z,72.55
2019-03-01T06:01:16.322Z,72.96
2019-03-01T06:04:17.844Z,72.87
2019-03-01T06:07:19.516Z,72.51
2019-03-01T06:10:13.717Z,72.75
2019-03-01T06:13:03.487Z,72.64
2019-03-01T06:15:53.255Z,72.13
2019-03-01T06:18:56.347Z,71.84
2019-03-01T06:21:48.193Z,71.20
2019-03-01T06:24:45.344Z,70.98
2019-03-01T06:27:36.783Z,70.53
2019-03-01T06:30:26.953Z,70.98
2019-03-01T06:33:10.693Z,70.20
2019-03-01T06:36:12.859Z,70.96
2019-03-01T06:38:55.466Z,71.71
2019-03-01T06:41:39.380Z,71.66
2019-03-01T06:44:17.108Z,72.14
2019-03-01T06:47:01.791Z,72.19
2019-03-01T06:49:52.676Z,72.17
2019-03-01T06:52:24.739Z,72.16
2019-03-01T06:54:56.195Z,72.60
2019-03-01T06:57:27.978Z,71.90
2019-03-01T06:59:59.609Z,71.84
2019-03-01T07:02:38.635Z,71.34
2019-03-01T07:05:10.597Z,71.05
2019-03-01T07:07:42.685Z,71.09
2019-03-01T07:10:14.252Z,71.04
2019-03-01T07:12:45.874Z,71.33
2019-03-01T07:15:17.422Z,70.65
2019-03-01T07:17:49.085Z,70.19
2019-03-01T07:20:22.112Z,70.12
2019-03-01T07:22:53.938Z,69.43
2019-03-01T07:25:25.480Z,67.47
2019-03-01T07:27:57.136Z,67.75
2019-03-01T07:30:28.485Z,65.87
2019-03-01T07:33:00.166Z,63.11
2019-03-01T07:35:31.799Z,64.28
2019-03-01T07:38:03.369Z,64.22
2019-03-01T07:40:35.213Z,65.26
2019-03-01T07:43:07.709Z,64.84
2019-03-01T07:45:39.358Z,63.38
2019-03-01T07:48:11.318Z,64.43
2019-03-01T07:50:42.870Z,65.20
2019-03-01T07:53:14.829Z,64.21
2019-03-01T07:55:46.696Z,63.99
2019-03-01T07:58:18.131Z,64.31
2019-03-01T08:00:53.646Z,65.33
2019-03-01T08:03:23.826Z,65.04
2019-03-01T08:05:55.771Z,65.93
2019-03-01T08:08:27.571Z,65.89
2019-03-01T08:11:00.214Z,65.54
2019-03-01T08:13:31.755Z,65.62
2019-03-01T08:16:03.562Z,64.90
2019-03-01T08:18:35.546Z,65.14
2019-03-01T08:21:10.125Z,65.94
2019-03-01T08:23:42.496Z,65.52
2019-03-01T08:26:15.782Z,64.21
2019-03-01T08:28:48.692Z,64.64
2019-03-01T08:31:20.993Z,64.23
2019-03-01T08:33:53.411Z,64.98
2019-03-01T08:36:25.380Z,65.41
2019-03-01T08:39:00.978Z,65.30
2019-03-01T08:41:37.993Z,64.18
2019-03-01T08:44:09.649Z,64.38
2019-03-01T08:46:45.640Z,62.10
2019-03-01T08:49:16.157Z,62.29
2019-03-01T08:51:47.964Z,62.54
2019-03-01T08:54:23.051Z,62.57
2019-03-01T08:56:53.673Z,63.73
2019-03-01T08:59:25.868Z,62.51
2019-03-01T09:01:58.674Z,62.22
2019-03-01T09:04:37.899Z,63.55
2019-03-01T09:07:08.608Z,62.60
2019-03-01T09:09:40.483Z,59.95
2019-03-01T09:12:14.887Z,61.26
2019-03-01T09:14:46.424Z,61.73
2019-03-01T09:17:19.862Z,61.54
2019-03-01T09:19:50.915Z,61.78
2019-03-01T09:22:24.175Z,60.04
2019-03-01T09:24:56.223Z,58.55
2019-03-01T09:27:30.316Z,57.16
2019-03-01T09:30:03.931Z,58.30
2019-03-01T09:32:37.060Z,59.12
2019-03-01T09:35:29.916Z,60.91
2019-03-01T09:38:04.614Z,61.47
2019-03-01T09:40:36.925Z,61.02
2019-03-01T09:43:13.148Z,61.24
2019-03-01T09:45:49.563Z,60.96
2019-03-01T09:48:22.114Z,60.73
2019-03-01T09:50:53.847Z,59.13
2019-03-01T09:53:30.507Z,59.23
2019-03-01T09:56:02.395Z,59.87
2019-03-01T09:58:34.015Z,60.09
2019-03-01T10:01:08.559Z,59.06
2019-03-01T10:03:40.648Z,58.80
2019-03-01T10:06:12.923Z,57.78
2019-03-01T10:08:44.898Z,57.04
2019-03-01T10:11:17.807Z,57.46
2019-03-01T10:13:49.505Z,57.96
2019-03-01T10:16:21.357Z,59.03
2019-03-01T10:18:55.200Z,59.88
2019-03-01T10:21:33.999Z,59.24
2019-03-01T10:24:05.658Z,59.04
2019-03-01T10:26:37.512Z,58.20
2019-03-01T10:29:09.272Z,58.23
2019-03-01T10:31:43.936Z,59.20
2019-03-01T10:34:15.922Z,59.88
2019-03-01T10:36:48.136Z,59.88
2019-03-01T10:39:21.564Z,60.60
2019-03-01T10:41:53.708Z,61.38
2019-03-01T10:44:27.099Z,63.55
2019-03-01T10:46:59.635Z,64.79
2019-03-01T10:49:31.682Z,64.67
2019-03-01T10:52:03.552Z,64.94
2019-03-01T10:54:38.548Z,66.26
2019-03-01T10:57:12.068Z,66.16
2019-03-01T10:59:43.672Z,65.45
2019-03-01T11:02:15.593Z,64.86
2019-03-01T11:04:48.629Z,64.53
2019-03-01T11:07:20.386Z,63.95
2019-03-01T11:09:52.090Z,63.90
2019-03-01T11:12:24.837Z,64.50
2019-03-01T11:15:01.751Z,63.00
2019-03-01T11:17:33.460Z,62.78
2019-03-01T11:20:10.851Z,59.44
2019-03-01T11:22:42.527Z,57.42
2019-03-01T11:25:17.032Z,55.91
2019-03-01T11:27:48.491Z,57.32
2019-03-01T11:30:39.774Z,58.01
2019-03-01T11:33:11.435Z,58.72
2019-03-01T11:35:43.157Z,59.66
2019-03-01T11:38:15.088Z,61.51
2019-03-01T11:40:46.730Z,62.30
2019-03-01T11:43:18.705Z,63.24
2019-03-01T11:45:50.354Z,62.61
2019-03-01T11:48:23.262Z,62.77
2019-03-01T11:50:55.213Z,62.01
2019-03-01T11:53:27.171Z,60.73
2019-03-01T11:55:59.266Z,61.75
2019-03-01T11:58:35.194Z,62.11
2019-03-01T12:01:16.904Z,61.58
2019-03-01T12:03:46.177Z,60.64
2019-03-01T12:06:18.447Z,61.83
2019-03-01T12:08:49.898Z,61.32
2019-03-01T12:11:21.594Z,61.90
2019-03-01T12:13:53.410Z,61.34
2019-03-01T12:16:25.274Z,61.35
2019-03-01T12:18:57.133Z,61.54
2019-03-01T12:21:29.158Z,61.11
2019-03-01T12:24:00.562Z,60.97
2019-03-01T12:26:32.453Z,60.65
2019-03-01T12:29:04.188Z,60.35
2019-03-01T12:31:40.297Z,60.20
2019-03-01T12:34:23.944Z,60.40
2019-03-01T12:36:57.462Z,59.73
2019-03-01T12:39:32.955Z,60.04
2019-03-01T12:42:05.276Z,59.79
2019-03-01T12:44:40.485Z,59.54
2019-03-01T12:47:12.113Z,59.32
2019-03-01T12:49:47.328Z,59.85
2019-03-01T12:52:19.664Z,60.71
2019-03-01T12:54:51.196Z,61.14
2019-03-01T12:57:28.328Z,61.89
2019-03-01T13:00:00.019Z,61.90
2019-03-01T13:05:13.654Z,61.67
2019-03-01T13:07:45.084Z,62.64
2019-03-01T13:10:21.125Z,63.59
2019-03-01T13:12:55.330Z,62.91
2019-03-01T13:15:28.001Z,63.00
2019-03-01T13:17:59.536Z,62.71
2019-03-01T13:20:33.727Z,63.96
2019-03-01T13:23:07.799Z,63.53
2019-03-01T13:25:39.908Z,64.22
2019-03-01T13:28:13.394Z,63.84
2019-03-01T13:33:23.407Z,64.48
2019-03-01T13:36:04.616Z,64.04
2019-03-01T13:38:37.719Z,64.67
2019-03-01T13:49:12.194Z,63.62
2019-03-01T13:51:49.362Z,63.65
2019-03-01T13:54:27.038Z,63.74
2019-03-01T13:56:59.792Z,63.10
2019-03-01T13:59:40.439Z,63.82
2019-03-01T14:04:52.252Z,62.89
2019-03-01T14:07:28.555Z,63.16
2019-03-01T14:10:04.813Z,62.76
2019-03-01T14:12:37.980Z,62.88
2019-03-01T14:15:14.180Z,62.75
2019-03-01T14:17:51.833Z,63.85
2019-03-01T14:20:23.802Z,64.17
2019-03-01T14:22:56.431Z,63.75
2019-03-01T14:25:31.010Z,64.32
2019-03-01T14:28:05.197Z,63.61
2019-03-01T14:30:37.149Z,63.72
2019-03-01T14:33:12.693Z,64.78
2019-03-01T14:35:48.371Z,65.77
2019-03-01T14:38:26.797Z,66.14
2019-03-01T14:40:59.634Z,67.20
2019-03-01T14:43:36.464Z,66.90
2019-03-01T14:46:12.062Z,66.46
2019-03-01T14:48:46.183Z,66.56
2019-03-01T14:51:19.979Z,66.73
2019-03-01T14:53:52.684Z,67.38
2019-03-01T14:56:38.139Z,68.09
2019-03-01T14:59:34.789Z,69.56
2019-03-01T15:07:41.568Z,68.64
2019-03-01T15:10:15.803Z,68.32
2019-03-01T15:20:47.341Z,67.48
2019-03-01T15:23:23.944Z,66.94
2019-03-01T15:25:59.104Z,67.07
2019-03-01T15:31:12.691Z,67.82
2019-03-01T15:36:37.121Z,68.65
2019-03-01T15:41:45.064Z,68.92
2019-03-01T15:44:16.717Z,68.27
2019-03-01T15:46:51.076Z,69.00
2019-03-01T15:49:23.532Z,68.10
2019-03-01T15:54:36.818Z,69.00
2019-03-01T15:57:11.558Z,69.31
2019-03-01T15:59:47.770Z,69.50
2019-03-01T16:02:18.061Z,69.70
2019-03-01T16:04:50.133Z,69.48
2019-03-01T16:07:22.871Z,69.10
2019-03-01T16:09:55.146Z,68.67
2019-03-01T16:12:29.002Z,68.68
2019-03-01T16:15:02.681Z,69.01
2019-03-01T16:17:36.516Z,69.22
2019-03-01T16:22:55.587Z,69.59
2019-03-01T16:25:32.240Z,70.72
2019-03-01T16:28:03.996Z,70.85
2019-03-01T16:30:39.337Z,71.22
2019-03-01T16:33:12.367Z,71.09
2019-03-01T16:35:48.491Z,71.39
2019-03-01T16:38:23.633Z,71.46
2019-03-01T16:41:01.883Z,71.19
2019-03-01T16:43:36.751Z,72.43
2019-03-01T16:46:10.269Z,73.13
2019-03-01T16:48:42.247Z,73.00
2019-03-01T16:51:18.707Z,73.66
2019-03-01T16:53:48.999Z,73.35
2019-03-01T16:59:00.301Z,72.74
2019-03-01T17:01:32.408Z,73.13
2019-03-01T17:04:03.831Z,72.48
2019-03-01T17:06:35.811Z,72.54
2019-03-01T17:09:07.461Z,71.55
2019-03-01T17:11:41.546Z,71.49
2019-03-01T17:14:15.862Z,71.17
2019-03-01T17:16:47.377Z,70.64
2019-03-01T17:19:20.595Z,69.88
2019-03-01T17:21:53.019Z,70.21
2019-03-01T17:24:24.843Z,69.54
2019-03-01T17:26:56.410Z,68.62
2019-03-01T17:29:29.058Z,68.83
2019-03-01T17:32:01.982Z,68.41
2019-03-01T17:34:35.202Z,69.41
2019-03-01T17:37:06.761Z,68.93
2019-03-01T17:39:42.076Z,68.06
2019-03-01T17:42:17.449Z,68.48
2019-03-01T17:44:52.854Z,68.91
2019-03-01T17:47:24.507Z,69.14
2019-03-01T17:49:55.578Z,69.60
2019-03-01T17:52:26.815Z,68.32
2019-03-01T17:55:01.529Z,68.67
2019-03-01T17:57:33.016Z,69.19
2019-03-01T18:00:05.591Z,69.58
2019-03-01T18:02:40.534Z,69.34
2019-03-01T18:05:12.825Z,69.62
2019-03-01T18:07:44.238Z,69.66
2019-03-01T18:10:15.966Z,68.99
2019-03-01T18:12:47.438Z,69.14
2019-03-01T18:17:56.458Z,69.05
2019-03-01T18:20:33.922Z,68.20
2019-03-01T18:23:05.699Z,68.43
2019-03-01T18:25:38.272Z,68.38
2019-03-01T18:28:09.864Z,68.05
2019-03-01T18:30:43.255Z,68.25
2019-03-01T18:33:16.915Z,68.07
2019-03-01T18:35:48.816Z,67.70
2019-03-01T18:38:21.930Z,67.69
2019-03-01T18:40:53.587Z,67.82
2019-03-01T18:46:08.671Z,67.27
2019-03-01T18:48:43.929Z,67.68
2019-03-01T18:51:15.143Z,66.41
2019-03-01T18:53:48.028Z,66.79
2019-03-01T18:56:21.327Z,66.22
2019-03-01T18:58:53.513Z,66.00
2019-03-01T19:01:26.224Z,66.32
2019-03-01T19:03:58.968Z,65.60
2019-03-01T19:06:30.608Z,65.88
2019-03-01T19:09:02.266Z,65.92
2019-03-01T19:11:37.974Z,65.76
2019-03-01T19:14:09.363Z,65.81
2019-03-01T19:16:40.879Z,66.27
2019-03-01T19:19:13.873Z,66.16
2019-03-01T19:21:45.819Z,66.76
2019-03-01T19:24:17.201Z,66.93
2019-03-01T19:26:49.280Z,66.71
2019-03-01T19:29:20.622Z,67.19
2019-03-01T19:31:52.938Z,67.52
2019-03-01T19:34:25.562Z,66.88
2019-03-01T19:36:56.953Z,67.01
2019-03-01T19:39:29.156Z,67.24
2019-03-01T19:42:01.081Z,66.86
2019-03-01T19:44:32.620Z,66.64
2019-03-01T19:47:04.992Z,65.70
2019-03-01T19:49:36.643Z,66.21
2019-03-01T19:52:12.177Z,65.41
2019-03-01T19:54:43.982Z,65.63
2019-03-01T19:57:15.617Z,65.96
2019-03-01T19:59:49.615Z,65.67
2019-03-01T20:02:23.093Z,65.23
2019-03-01T20:04:55.660Z,65.23
2019-03-01T20:07:28.856Z,64.95
2019-03-01T20:10:00.301Z,65.05
2019-03-01T20:12:31.861Z,65.88
2019-03-01T20:15:06.683Z,65.46
2019-03-01T20:17:44.418Z,65.35
2019-03-01T20:20:16.458Z,65.08
2019-03-01T20:22:54.291Z,65.14
2019-03-01T20:25:26.551Z,64.43
2019-03-01T20:27:57.917Z,64.44
2019-03-01T20:30:37.357Z,64.12
2019-03-01T20:33:08.901Z,63.97
2019-03-01T20:35:42.717Z,63.84
2019-03-01T20:38:14.047Z,64.09
2019-03-01T20:40:45.704Z,64.09
2019-03-01T20:43:17.465Z,63.72
2019-03-01T20:45:48.928Z,64.25
2019-03-01T20:48:21.443Z,63.87
2019-03-01T20:50:52.774Z,64.26
2019-03-01T20:53:24.255Z,64.56
2019-03-01T20:55:56.864Z,63.38
2019-03-01T20:58:28.285Z,64.11
2019-03-01T21:01:01.919Z,63.07
2019-03-01T21:03:33.013Z,64.20
2019-03-01T21:06:05.449Z,63.92
2019-03-01T21:08:38.624Z,64.10
2019-03-01T21:11:10.262Z,63.75
2019-03-01T21:13:42.250Z,63.65
2019-03-01T21:16:15.240Z,64.39
2019-03-01T21:18:47.004Z,64.34
2019-03-01T21:21:20.699Z,64.63
2019-03-01T21:23:53.545Z,64.81
2019-03-01T21:26:25.360Z,64.30
2019-03-01T21:28:56.599Z,64.50
2019-03-01T21:31:27.842Z,65.17
2019-03-01T21:33:59.395Z,64.81
2019-03-01T21:36:39.440Z,65.01
2019-03-01T21:39:13.146Z,65.62
2019-03-01T21:41:46.024Z,65.55
2019-03-01T21:44:17.480Z,66.64
2019-03-01T21:46:50.670Z,66.18
2019-03-01T21:49:24.833Z,66.28
2019-03-01T21:51:56.329Z,66.91
2019-03-01T21:54:27.700Z,67.10
2019-03-01T21:57:00.317Z,66.68
2019-03-01T21:59:32.918Z,67.10
2019-03-01T22:02:05.316Z,67.07
2019-03-01T22:04:37.375Z,67.20
2019-03-01T22:07:12.312Z,67.60
2019-03-01T22:09:43.564Z,67.71
2019-03-01T22:12:15.322Z,66.94
2019-03-01T22:14:49.016Z,67.16
2019-03-01T22:17:20.479Z,67.29
2019-03-01T22:19:52.337Z,67.38
2019-03-01T22:22:23.525Z,67.59
2019-03-01T22:24:58.599Z,67.29
2019-03-01T22:27:28.849Z,67.66
2019-03-01T22:30:00.525Z,68.23
2019-03-01T22:32:33.540Z,68.55
2019-03-01T22:35:08.548Z,68.45
2019-03-01T22:37:40.174Z,67.83
2019-03-01T22:40:12.189Z,68.06
2019-03-01T22:42:45.694Z,68.73
2019-03-01T22:45:17.765Z,68.91
2019-03-01T22:47:49.161Z,68.35
2019-03-01T22:50:21.122Z,69.35
2019-03-01T22:52:52.335Z,69.62
2019-03-01T22:55:23.956Z,70.00
2019-03-01T22:57:57.789Z,71.05
2019-03-01T23:00:49.763Z,70.14
2019-03-01T23:03:22.681Z,70.14
2019-03-01T23:05:53.996Z,70.40
2019-03-01T23:08:26.683Z,70.21
2019-03-01T23:10:58.233Z,70.55
2019-03-01T23:13:29.494Z,70.97
2019-03-01T23:16:00.697Z,70.45
2019-03-01T23:18:32.104Z,70.00
2019-03-01T23:21:03.322Z,69.76
2019-03-01T23:23:34.664Z,70.29
2019-03-01T23:26:06.089Z,70.13
2019-03-01T23:28:40.802Z,69.93
2019-03-01T23:31:13.941Z,70.86
2019-03-01T23:33:45.486Z,71.24
2019-03-01T23:36:17.342Z,72.23
2019-03-01T23:38:50.139Z,71.58
2019-03-01T23:41:21.200Z,71.55
2019-03-01T23:43:52.721Z,71.03
2019-03-01T23:46:25.603Z,71.03
2019-03-01T23:49:06.047Z,71.32
2019-03-01T23:51:31.243Z,71.49
2019-03-01T23:54:05.728Z,71.76
2019-03-01T23:56:34.918Z,71.40
2019-03-01T23:59:06.186Z,71.63
